M I D A S
Marine Information and Data Acquisition System
Tripno 1216 of the Zeeleeuw from 2007-02-22 07:44:22 to 2007-02-22 15:07:47
Back to CruiseResearch ActivitiesStationsMapUnderway DataData graphs

EquipmentUnitsComment
TimeDGPSUTC
LatitudeDGPSDM.mWGS84
LongitudeDGPSDM.mWGS84
TemperatureSBE03/SBE38deg celciusITS90
ConductivitySBE21S/mITS90
SalinitySBE21 Practical Salinity Units
ChlorophylAChelsea fluorimeterg/lCalibrated in Aceton
Missing or incorrect values are displayed as -999
Sea surface data collected by the RV Zeeleeuw from 2007-02-22 07:45:23 to 2007-02-22 15:16:21
Time Latitude Longitude Temperature Conductivity Salinity ChlorophylA
2007-02-22 07:46:32 51°13.617 2°56.028 16.1494 0.083099 0.438253 -2.871232
2007-02-22 07:47:31 51°13.653 2°55.915 16.2118 0.083202 0.43884 -2.871232
2007-02-22 07:48:32 51°13.698 2°55.809 16.2126 0.083202 0.438865 -2.871232
2007-02-22 07:49:31 51°13.755 2°55.724 16.2489 0.083202 0.438889 -2.871232
2007-02-22 07:50:32 51°13.833 2°55.652 16.2642 0.082996 0.437807 -2.871232
2007-02-22 07:51:30 51°13.868 2°55.618 16.0339 0.083099 0.438385 -2.871232
2007-02-22 07:52:32 51°13.913 2°55.612 16.2077 0.082893 0.43731 -2.871232
2007-02-22 07:53:30 51°13.962 2°55.615 16.2945 0.083099 0.438468 -2.871232
2007-02-22 07:54:28 51°13.967 2°55.542 15.7526 0.082996 0.437988 -2.871232
2007-02-22 07:55:28 51°14.056 2°55.465 15.976 0.082893 0.437417 -2.871232
2007-02-22 07:56:28 51°14.228 2°55.328 16.0521 0.082996 0.438054 -2.871232
2007-02-22 07:57:28 51°14.343 2°55.103 15.8416 0.083099 0.438633 -2.871232
2007-02-22 07:58:28 51°14.489 2°54.847 15.9216 0.082996 0.438103 -2.871232
2007-02-22 07:59:28 51°14.667 2°54.624 15.7875 0.082996 0.438169 -2.871232
2007-02-22 08:00:28 51°14.833 2°54.368 15.8062 0.082996 0.438202 -2.871232
2007-02-22 08:01:28 51°14.991 2°54.103 15.5863 0.082893 0.437664 -2.871232
2007-02-22 08:02:28 51°15.15 2°53.841 15.743 0.083099 0.438839 -2.871232
2007-02-22 08:03:28 51°15.317 2°53.591 15.7401 0.082996 0.438301 -2.871232
2007-02-22 08:04:28 51°15.51 2°53.405 15.7181 0.082996 0.438326 -2.871232
2007-02-22 08:05:28 51°15.72 2°53.294 15.7125 0.082996 0.438359 -2.871232
2007-02-22 08:06:28 51°15.929 2°53.182 15.7011 0.082996 0.438375 -2.871232
2007-02-22 08:07:28 51°16.139 2°53.071 15.6754 0.082893 0.437829 -2.871232
2007-02-22 08:08:28 51°16.348 2°52.956 15.6723 0.082893 0.437854 -2.871232
2007-02-22 08:09:28 51°16.557 2°52.841 15.5679 0.082893 0.437862 -2.871232
2007-02-22 08:10:28 51°16.767 2°52.73 15.6709 0.08279 0.437316 -2.871232
2007-02-22 08:11:28 51°16.974 2°52.618 15.6323 0.08279 0.437332 -2.871232
2007-02-22 08:12:28 51°17.185 2°52.507 15.573 0.082893 0.437912 -2.871232
2007-02-22 08:13:28 51°17.394 2°52.385 15.5678 0.082893 0.437945 -2.871232
2007-02-22 08:14:28 51°17.551 2°52.138 15.5862 0.082996 0.438524 -2.871232
2007-02-22 08:15:28 51°17.638 2°51.805 15.6106 0.082893 0.437945 -2.871232
2007-02-22 08:16:28 51°17.734 2°51.475 15.6037 0.082893 0.437969 -2.871232
2007-02-22 08:17:28 51°17.834 2°51.144 15.6373 0.082893 0.437978 -2.871232
2007-02-22 08:18:28 51°17.935 2°50.812 15.5955 0.082996 0.438565 -2.871232
2007-02-22 08:19:28 51°18.037 2°50.482 15.643 0.08279 0.437456 -2.871232
2007-02-22 08:20:28 51°18.137 2°50.152 15.6465 0.08279 0.437481 -2.871232
2007-02-22 08:21:28 51°18.233 2°49.819 15.6469 0.082996 0.438615 -2.871232
2007-02-22 08:22:28 51°18.331 2°49.487 15.6512 0.082996 0.438632 -2.871232
2007-02-22 08:23:28 51°18.43 2°49.156 15.6243 0.083099 0.439211 -2.871232
2007-02-22 08:24:28 51°18.528 2°48.82 15.676 0.082996 0.438665 -2.871232
2007-02-22 08:25:28 51°18.626 2°48.48 15.6563 0.082688 0.436992 -2.871232
2007-02-22 08:26:28 51°18.724 2°48.14 15.673 0.08279 0.43758 -2.871232
2007-02-22 08:27:28 51°18.817 2°47.801 15.6151 0.08279 0.437604 -2.871232
2007-02-22 08:28:28 51°18.908 2°47.461 15.6732 0.082893 0.438176 -2.871232
2007-02-22 08:29:28 51°18.997 2°47.121 15.6466 0.082893 0.438192 -2.871232
2007-02-22 08:30:28 51°19.085 2°46.781 15.6772 0.082893 0.438217 -2.871232
2007-02-22 08:31:28 51°19.174 2°46.441 15.6513 0.082893 0.438234 -2.871232
2007-02-22 08:32:28 51°19.265 2°46.101 15.6848 0.082893 0.438258 -2.871232
2007-02-22 08:33:28 51°19.355 2°45.761 15.7116 0.08279 0.437712 -2.871232
2007-02-22 08:34:28 51°19.451 2°45.421 15.6815 0.082893 0.438291 -2.871232
2007-02-22 08:35:28 51°19.551 2°45.078 15.6762 0.082893 0.438308 -2.871232
2007-02-22 08:36:28 51°19.647 2°44.737 15.6844 0.082893 0.438316 -2.871232
2007-02-22 08:37:28 51°19.741 2°44.4 15.7304 0.082996 0.438905 -2.871232
2007-02-22 08:38:28 51°19.836 2°44.063 15.7401 0.082893 0.438349 -2.871232
2007-02-22 08:39:28 51°19.93 2°43.728 15.756 0.08279 0.437802 -2.871232
2007-02-22 08:40:28 51°20.025 2°43.393 15.7434 0.082996 0.438946 -2.871232
2007-02-22 08:41:28 51°20.121 2°43.058 15.7588 0.08279 0.437844 -2.871232
2007-02-22 08:42:28 51°20.217 2°42.721 15.7581 0.083099 0.439559 -2.871232
2007-02-22 08:43:28 51°20.313 2°42.383 15.7829 0.082893 0.438449 -2.871232
2007-02-22 08:44:28 51°20.41 2°42.044 15.7832 0.082996 0.439029 -2.871232
2007-02-22 08:45:28 51°20.509 2°41.704 15.7708 0.082893 0.43849 -2.871232
2007-02-22 08:46:28 51°20.605 2°41.365 15.7796 0.082893 0.438515 -2.871232
2007-02-22 08:47:28 51°20.703 2°41.028 15.8445 0.082688 0.437404 -2.871232
2007-02-22 08:48:28 51°20.747 2°40.671 15.8396 0.082688 0.43742 -2.871232
2007-02-22 08:49:28 51°20.769 2°40.306 15.8209 0.082688 0.437437 -2.871232
2007-02-22 08:50:28 51°20.793 2°39.939 15.8246 0.08279 0.438034 -2.871232
2007-02-22 08:51:28 51°20.818 2°39.57 15.8486 0.082688 0.437478 -2.871232
2007-02-22 08:52:28 51°20.845 2°39.201 15.8526 0.082893 0.438639 -2.871232
2007-02-22 08:53:28 51°20.865 2°38.832 15.8765 0.083099 0.439783 -2.871232
2007-02-22 08:54:28 51°20.879 2°38.46 15.8715 0.082893 0.43868 -2.871232
2007-02-22 08:55:28 51°20.895 2°38.088 15.8875 0.082893 0.438705 -2.871232
2007-02-22 08:56:28 51°20.911 2°37.715 15.8849 0.082893 0.43873 -2.871232
2007-02-22 08:57:28 51°20.927 2°37.342 15.8997 0.082893 0.438763 -2.871232
2007-02-22 08:58:28 51°20.941 2°36.968 15.9117 0.08279 0.438216 -2.871232
2007-02-22 08:59:28 51°20.958 2°36.593 15.9071 0.08279 0.438249 -2.871232
2007-02-22 09:00:28 51°20.974 2°36.218 15.9294 0.082688 0.437718 -2.871232
2007-02-22 09:01:28 51°20.989 2°35.844 15.9726 0.082996 0.439427 -2.871232
2007-02-22 09:02:28 51°21.005 2°35.47 15.9759 0.08279 0.438323 -2.871232
2007-02-22 09:03:28 51°21.019 2°35.096 15.9562 0.082688 0.437801 -2.871232
2007-02-22 09:04:28 51°21.035 2°34.721 15.974 0.082688 0.437817 -2.871232
2007-02-22 09:05:28 51°21.05 2°34.346 15.9926 0.08279 0.438398 -2.871232
2007-02-22 09:06:28 51°21.067 2°33.97 15.9973 0.082893 0.439004 -2.871232
2007-02-22 09:07:28 51°21.083 2°33.593 16.0002 0.08279 0.438472 -2.871232
2007-02-22 09:08:28 51°21.099 2°33.219 16.0079 0.082893 0.439078 -2.871232
2007-02-22 09:09:28 51°21.187 2°32.887 16.0115 0.08279 0.438539 -2.871232
2007-02-22 09:10:28 51°21.374 2°32.715 16.0425 0.082893 0.439136 -2.871232
2007-02-22 09:11:28 51°21.592 2°32.717 16.0673 0.082996 0.439718 -2.871232
2007-02-22 09:12:28 51°21.815 2°32.714 16.1001 0.082893 0.43917 -2.871232
2007-02-22 09:13:28 51°22.039 2°32.698 16.1191 0.08279 0.43863 -2.871232
2007-02-22 09:14:28 51°22.262 2°32.676 16.134 0.082688 0.438107 -2.871232
2007-02-22 09:15:28 51°22.481 2°32.647 16.1246 0.082996 0.439817 -2.871232
2007-02-22 09:16:28 51°22.689 2°32.563 16.1746 0.08279 0.438729 -2.871232
2007-02-22 09:17:28 51°22.822 2°32.279 16.1682 0.082688 0.438206 -2.871232
2007-02-22 09:18:28 51°22.827 2°31.909 16.1682 0.082482 0.437069 -2.871232
2007-02-22 09:19:28 51°22.793 2°31.536 16.1844 0.082688 0.438231 -2.871232
2007-02-22 09:20:28 51°22.774 2°31.155 16.1591 0.082688 0.438273 -2.871232
2007-02-22 09:21:28 51°22.761 2°30.772 16.2101 0.082585 0.437716 -2.871232
2007-02-22 09:22:28 51°22.747 2°30.392 16.1931 0.082893 0.439427 -2.871232
2007-02-22 09:23:28 51°22.73 2°30.015 16.2176 0.08279 0.438887 -2.871232
2007-02-22 09:24:28 51°22.71 2°29.638 16.2126 0.082893 0.439469 -2.871232
2007-02-22 09:25:28 51°22.689 2°29.261 16.2442 0.082585 0.437799 -2.871232
2007-02-22 09:26:28 51°22.667 2°28.881 16.2556 0.082791 0.438962 -2.871232
2007-02-22 09:27:28 51°22.648 2°28.503 16.2795 0.082893 0.439552 -2.871232
2007-02-22 09:28:28 51°22.629 2°28.124 16.2683 0.082585 0.43789 -2.871232
2007-02-22 09:29:28 51°22.609 2°27.745 16.2993 0.082585 0.437915 -2.871232
2007-02-22 09:30:28 51°22.591 2°27.363 16.2988 0.082585 0.437948 -2.871232
2007-02-22 09:31:28 51°22.575 2°26.98 16.3124 0.082893 0.439677 -2.871232
2007-02-22 09:32:28 51°22.558 2°26.6 16.3434 0.082688 0.438571 -2.871232
2007-02-22 09:33:28 51°22.542 2°26.219 16.3443 0.082688 0.438613 -2.871232
2007-02-22 09:34:28 51°22.526 2°25.838 16.3571 0.082996 0.440334 -2.871232
2007-02-22 09:35:28 51°22.513 2°25.456 16.333 0.082585 0.438106 -2.871232
2007-02-22 09:36:28 51°22.596 2°25.115 16.3558 0.082585 0.438155 -2.871232
2007-02-22 09:37:28 51°22.795 2°24.997 16.3802 0.082688 0.438713 -2.871232
2007-02-22 09:38:28 51°23 2°25.044 16.4079 0.082688 0.438746 -2.871232
2007-02-22 09:39:28 51°23.199 2°25.126 16.4293 0.082791 0.439336 -2.871232
2007-02-22 09:40:28 51°23.394 2°25.216 16.4157 0.082688 0.438829 -2.871232
2007-02-22 09:41:28 51°23.589 2°25.307 16.4606 0.082688 0.438829 -2.871232
2007-02-22 09:42:28 51°23.782 2°25.406 16.4393 0.082688 0.438904 -2.871232
2007-02-22 09:43:28 51°23.985 2°25.486 16.4953 0.082688 0.438937 -2.871232
2007-02-22 09:44:28 51°24.19 2°25.561 16.5048 0.082791 0.439528 -2.871232
2007-02-22 09:45:28 51°24.392 2°25.63 16.5049 0.082482 0.437864 -2.871232
2007-02-22 09:46:28 51°24.596 2°25.686 16.4979 0.082482 0.437905 -2.871232
2007-02-22 09:47:28 51°24.797 2°25.745 16.5416 0.082482 0.437939 -2.871232
2007-02-22 09:48:28 51°24.997 2°25.803 16.5798 0.082688 0.439078 -2.871232
2007-02-22 09:49:28 51°25.198 2°25.868 16.579 0.082688 0.439112 -2.871232
2007-02-22 09:50:28 51°25.399 2°25.933 16.5932 0.082791 0.439703 -2.871232
2007-02-22 09:51:28 51°25.602 2°25.993 16.593 0.082482 0.438005 -2.871232
2007-02-22 09:52:28 51°25.806 2°26.049 16.6179 0.082585 0.438621 -2.871232
2007-02-22 09:53:28 51°26.007 2°26.115 16.6487 0.082688 0.43922 -2.871232
2007-02-22 09:54:28 51°26.208 2°26.17 16.5946 0.082688 0.439245 -2.871232
2007-02-22 09:55:28 51°26.412 2°26.233 16.6542 0.082585 0.438704 -2.871232
2007-02-22 09:56:28 51°26.616 2°26.296 16.6752 0.082996 0.440985 -2.871232
2007-02-22 09:57:28 51°26.821 2°26.357 16.6879 0.082688 0.439312 -2.871232
2007-02-22 09:58:28 51°27.029 2°26.431 16.7199 0.082791 0.439911 -2.871232
2007-02-22 09:59:28 51°27.229 2°26.487 16.7077 0.082791 0.439928 -2.871232
2007-02-22 10:00:28 51°27.427 2°26.547 16.7426 0.082688 0.439387 -2.871232
2007-02-22 10:01:28 51°27.63 2°26.609 16.7286 0.082791 0.439995 -2.871232
2007-02-22 10:02:28 51°27.831 2°26.678 16.7439 0.082791 0.439995 -2.871232
2007-02-22 10:03:28 51°28.031 2°26.746 16.7719 0.082585 0.438895 -2.871232
2007-02-22 10:04:28 51°28.232 2°26.812 16.8078 0.082688 0.43947 -2.871232
2007-02-22 10:05:28 51°28.435 2°26.877 16.8103 0.082688 0.439487 -2.871232
2007-02-22 10:06:28 51°28.636 2°26.942 16.8108 0.082585 0.438945 -2.871232
2007-02-22 10:07:28 51°28.838 2°26.954 16.8779 0.082688 0.439545 -2.871232
2007-02-22 10:08:28 51°28.972 2°26.702 16.8401 0.082482 0.438446 -2.871232
2007-02-22 10:09:28 51°29.007 2°26.343 16.8146 0.082585 0.43902 -2.871232
2007-02-22 10:10:28 51°29.056 2°25.984 16.8677 0.082688 0.439629 -2.871232
2007-02-22 10:11:28 51°29.108 2°25.629 16.8404 0.082379 0.437979 -2.871232
2007-02-22 10:12:28 51°29.165 2°25.278 16.8476 0.082791 0.440254 -2.871232
2007-02-22 10:13:28 51°29.219 2°24.929 16.8885 0.082893 0.440821 -2.871232
2007-02-22 10:14:28 51°29.274 2°24.575 16.8623 0.082688 0.439737 -2.871232
2007-02-22 10:15:28 51°29.332 2°24.222 16.8986 0.082585 0.439187 -2.871232
2007-02-22 10:16:28 51°29.395 2°23.87 16.9036 0.082688 0.439812 -2.871232
2007-02-22 10:17:28 51°29.53 2°23.61 16.9237 0.082688 0.439812 -2.871232
2007-02-22 10:18:28 51°29.726 2°23.605 16.9676 0.082585 0.439254 -2.871232
2007-02-22 10:19:28 51°29.907 2°23.716 16.9331 0.082688 0.439879 -2.871232
2007-02-22 10:20:28 51°30.083 2°23.861 17.0085 0.082688 0.439888 -2.871232
2007-02-22 10:21:28 51°30.251 2°24.007 16.9955 0.082791 0.440513 -2.871232
2007-02-22 10:22:28 51°30.42 2°24.162 17.0122 0.082791 0.44053 -2.871232
2007-02-22 10:23:28 51°30.588 2°24.314 17.0009 0.082791 0.440572 -2.871232
2007-02-22 10:24:28 51°30.753 2°24.486 17.0007 0.082791 0.440614 -2.871232
2007-02-22 10:25:28 51°30.912 2°24.665 17.0435 0.082791 0.440614 -2.871232
2007-02-22 10:26:28 51°31.063 2°24.856 17.0413 0.082791 0.440656 -2.871232
2007-02-22 10:27:28 51°31.214 2°25.052 17.0355 0.082688 0.440105 -2.871232
2007-02-22 10:28:28 51°31.368 2°25.243 17.097 0.082893 0.441256 -2.871232
2007-02-22 10:29:28 51°31.52 2°25.433 17.1229 0.082688 0.440155 -2.871232
2007-02-22 10:30:28 51°31.673 2°25.62 17.0935 0.082893 0.44134 -2.871232
2007-02-22 10:31:28 51°31.829 2°25.804 17.1255 0.082791 0.440781 -2.871232
2007-02-22 10:32:28 51°31.987 2°25.986 17.0904 0.082893 0.441408 -2.871232
2007-02-22 10:33:28 51°32.145 2°26.163 17.1425 0.082791 0.440832 -2.871232
2007-02-22 10:34:28 51°32.301 2°26.341 17.156 0.082791 0.440882 -2.871232
2007-02-22 10:35:28 51°32.46 2°26.518 17.1869 0.082688 0.440298 -2.871232
2007-02-22 10:36:28 51°32.622 2°26.687 17.1723 0.082791 0.440916 -2.871232
2007-02-22 10:37:28 51°32.782 2°26.866 17.187 0.082688 0.44039 -2.871232
2007-02-22 10:38:28 51°32.944 2°27.033 17.2162 0.082791 0.440958 -2.871232
2007-02-22 10:39:28 51°33.108 2°27.203 17.2431 0.082791 0.440966 -2.871232
2007-02-22 10:40:28 51°33.271 2°27.365 17.2242 0.082585 0.439873 -2.871232
2007-02-22 10:41:28 51°33.437 2°27.526 17.274 0.082791 0.441025 -2.871232
2007-02-22 10:42:28 51°33.598 2°27.685 17.2571 0.082688 0.440499 -2.871232
2007-02-22 10:43:28 51°33.76 2°27.846 17.2415 0.082791 0.4411 -2.871232
2007-02-22 10:44:28 51°33.923 2°28.008 17.3037 0.082893 0.441693 -2.871232
2007-02-22 10:45:28 51°34.085 2°28.173 17.3025 0.082688 0.440625 -2.871232
2007-02-22 10:46:28 51°34.246 2°28.332 17.3419 0.082585 0.440048 -2.871232
2007-02-22 10:47:28 51°34.408 2°28.492 17.3462 0.082791 0.441201 -2.871232
2007-02-22 10:48:28 51°34.565 2°28.666 17.3427 0.082585 0.440099 -2.871232
2007-02-22 10:49:28 51°34.729 2°28.841 17.3656 0.082791 0.441268 -2.871232
2007-02-22 10:50:28 51°34.889 2°29.004 17.366 0.082791 0.441268 -2.871232
2007-02-22 10:51:28 51°35.048 2°29.158 17.3467 0.082791 0.44131 -2.871232
2007-02-22 10:52:28 51°35.207 2°29.315 17.3773 0.082482 0.43964 -2.871232
2007-02-22 10:53:28 51°35.367 2°29.481 17.3932 0.082688 0.440818 -2.871232
2007-02-22 10:54:28 51°35.529 2°29.63 17.3955 0.082688 0.44086 -2.871232
2007-02-22 10:55:28 51°35.695 2°29.79 17.3871 0.082585 0.4403 -2.871232
2007-02-22 10:56:28 51°35.86 2°29.947 17.4187 0.082688 0.440868 -2.871232
2007-02-22 10:57:28 51°36.023 2°30.108 17.4402 0.082585 0.440308 -2.871232
2007-02-22 10:58:28 51°36.183 2°30.277 17.4036 0.082585 0.440376 -2.871232
2007-02-22 10:59:28 51°36.349 2°30.446 17.4516 0.082791 0.441529 -2.871232
2007-02-22 11:00:28 51°36.512 2°30.609 17.4418 0.082791 0.441529 -2.871232
2007-02-22 11:01:28 51°36.675 2°30.765 17.4738 0.082791 0.441563 -2.871232
2007-02-22 11:02:28 51°36.837 2°30.933 17.4633 0.082585 0.440459 -2.871232
2007-02-22 11:03:28 51°36.999 2°31.097 17.4787 0.082791 0.441622 -2.871232
2007-02-22 11:04:28 51°37.158 2°31.261 17.4873 0.082791 0.441647 -2.871232
2007-02-22 11:05:28 51°37.318 2°31.411 17.5025 0.082688 0.441095 -2.871232
2007-02-22 11:06:28 51°37.478 2°31.567 17.513 0.082688 0.441137 -2.871232
2007-02-22 11:07:28 51°37.643 2°31.724 17.5283 0.082688 0.441146 -2.871232
2007-02-22 11:08:28 51°37.801 2°31.888 17.5191 0.082482 0.440059 -2.871232
2007-02-22 11:09:28 51°37.959 2°32.043 17.523 0.082688 0.441196 -2.871232
2007-02-22 11:10:28 51°38.118 2°32.207 17.549 0.082791 0.44179 -2.871232
2007-02-22 11:11:28 51°38.277 2°32.358 17.5454 0.082791 0.441841 -2.871232
2007-02-22 11:12:28 51°38.437 2°32.514 17.577 0.082688 0.441306 -2.871232
2007-02-22 11:13:28 51°38.597 2°32.67 17.5658 0.082688 0.441356 -2.871232
2007-02-22 11:14:28 51°38.76 2°32.823 17.5745 0.082585 0.440754 -2.871232
2007-02-22 11:15:28 51°38.922 2°32.978 17.5742 0.082688 0.441373 -2.871232
2007-02-22 11:16:28 51°39.084 2°33.134 17.5814 0.082585 0.440838 -2.871232
2007-02-22 11:17:28 51°39.243 2°33.291 17.5741 0.082791 0.442001 -2.871232
2007-02-22 11:18:28 51°39.407 2°33.455 17.5909 0.082688 0.441449 -2.871232
2007-02-22 11:19:28 51°39.569 2°33.618 17.5826 0.082688 0.441499 -2.871232
2007-02-22 11:20:28 51°39.731 2°33.782 17.6236 0.082688 0.441491 -2.871232
2007-02-22 11:21:28 51°39.896 2°33.931 17.6103 0.082688 0.441525 -2.871232
2007-02-22 11:22:28 51°40.062 2°34.085 17.6161 0.082585 0.440981 -2.871232
2007-02-22 11:23:28 51°40.227 2°34.239 17.6217 0.082688 0.441592 -2.871232
2007-02-22 11:24:28 51°40.391 2°34.392 17.6343 0.082585 0.441031 -2.871232
2007-02-22 11:25:28 51°40.561 2°34.524 17.6437 0.082791 0.442204 -2.871232
2007-02-22 11:26:28 51°40.733 2°34.654 17.6426 0.082482 0.440555 -2.871232
2007-02-22 11:27:28 51°40.907 2°34.776 17.6693 0.082688 0.441702 -2.871232
2007-02-22 11:28:28 51°41.081 2°34.911 17.6641 0.082688 0.441702 -2.871232
2007-02-22 11:29:28 51°41.254 2°35.043 17.6593 0.082688 0.441769 -2.871232
2007-02-22 11:30:28 51°41.425 2°35.178 17.6566 0.082688 0.441795 -2.871232
2007-02-22 11:31:28 51°41.553 2°35.395 17.6753 0.082688 0.441795 -2.871232
2007-02-22 11:32:28 51°41.525 2°35.692 17.694 0.082791 0.442381 -2.871232
2007-02-22 11:33:28 51°41.428 2°35.98 17.6964 0.082791 0.442415 -2.871232
2007-02-22 11:34:28 51°41.328 2°36.261 17.7146 0.082585 0.441293 -2.871232
2007-02-22 11:35:28 51°41.223 2°36.539 17.7142 0.082688 0.441913 -2.871232
2007-02-22 11:36:28 51°41.125 2°36.828 17.7304 0.082482 0.440782 -2.871232
2007-02-22 11:37:28 51°41.021 2°37.121 17.7382 0.082585 0.441394 -2.871232
2007-02-22 11:38:28 51°40.917 2°37.412 17.7352 0.082791 0.44255 -2.871232
2007-02-22 11:39:28 51°40.815 2°37.705 17.7403 0.082791 0.442567 -2.871232
2007-02-22 11:40:28 51°40.713 2°37.999 17.7588 0.082585 0.44147 -2.871232
2007-02-22 11:41:28 51°40.608 2°38.29 17.755 0.082585 0.441495 -2.871232
2007-02-22 11:42:28 51°40.499 2°38.578 17.7632 0.082688 0.44209 -2.871232
2007-02-22 11:43:28 51°40.39 2°38.867 17.7619 0.082585 0.441537 -2.871232
2007-02-22 11:44:28 51°40.281 2°39.153 17.7821 0.082585 0.441588 -2.871232
2007-02-22 11:45:28 51°40.172 2°39.442 17.7841 0.082585 0.441613 -2.871232
2007-02-22 11:46:28 51°40.063 2°39.727 17.792 0.082894 0.443366 -2.871232
2007-02-22 11:47:28 51°39.958 2°40.013 17.7989 0.082688 0.442242 -2.871232
2007-02-22 11:48:28 51°39.853 2°40.3 17.8138 0.082791 0.442846 -2.871232
2007-02-22 11:49:28 51°39.75 2°40.587 17.8218 0.082688 0.442293 -2.871232
2007-02-22 11:50:28 51°39.643 2°40.872 17.8209 0.082791 0.442906 -2.871232
2007-02-22 11:51:28 51°39.539 2°41.157 17.837 0.082688 0.442352 -2.871232
2007-02-22 11:52:28 51°39.434 2°41.438 17.8298 0.082585 0.441825 -2.871232
2007-02-22 11:53:28 51°39.33 2°41.72 17.8488 0.082791 0.442974 -2.871232
2007-02-22 11:54:28 51°39.227 2°42.005 17.8453 0.082688 0.44242 -2.871232
2007-02-22 11:55:28 51°39.107 2°42.281 17.8547 0.082688 0.442463 -2.871232
2007-02-22 11:56:28 51°38.898 2°42.383 17.8684 0.082688 0.442471 -2.871232
2007-02-22 11:57:29 51°38.661 2°42.303 17.8728 0.082791 0.443075 -2.871232
2007-02-22 11:58:28 51°38.433 2°42.225 17.8785 0.082585 0.441994 -2.871232
2007-02-22 11:59:28 51°38.199 2°42.157 17.8818 0.082791 0.44316 -2.871232
2007-02-22 12:00:28 51°37.962 2°42.104 17.8907 0.082791 0.443186 -2.871232
2007-02-22 12:01:28 51°37.726 2°42.053 17.8969 0.082688 0.442649 -2.871232
2007-02-22 12:02:29 51°37.485 2°42.004 17.8968 0.082688 0.442674 -2.871232
2007-02-22 12:03:28 51°37.281 2°41.837 17.8963 0.082688 0.442708 -2.871232
2007-02-22 12:04:29 51°37.191 2°41.487 17.9013 0.082585 0.442172 -2.871232
2007-02-22 12:05:28 51°37.193 2°41.112 17.9065 0.082688 0.442759 -2.871232
2007-02-22 12:06:28 51°37.221 2°40.737 17.9102 0.082585 0.442214 -2.871232
2007-02-22 12:07:28 51°37.251 2°40.365 17.9127 0.082688 0.442827 -2.871232
2007-02-22 12:08:29 51°37.286 2°39.99 17.9082 0.082688 0.442844 -2.871232
2007-02-22 12:09:28 51°37.317 2°39.632 17.9175 0.082791 0.443457 -2.871232
2007-02-22 12:10:28 51°37.348 2°39.268 17.9154 0.082585 0.44235 -2.871232
2007-02-22 12:11:28 51°37.378 2°38.905 17.9143 0.082585 0.442375 -2.871232
2007-02-22 12:12:28 51°37.407 2°38.542 17.919 0.082688 0.44298 -2.871232
2007-02-22 12:13:29 51°37.436 2°38.174 17.9205 0.082585 0.442443 -2.871232
2007-02-22 12:14:28 51°37.467 2°37.82 17.9198 0.082791 0.443619 -2.871232
2007-02-22 12:15:29 51°37.493 2°37.451 17.9184 0.082688 0.443099 -2.871232
2007-02-22 12:16:27 51°37.513 2°37.099 17.9226 0.082688 0.443107 -2.871232
2007-02-22 12:17:28 51°37.535 2°36.727 17.9253 0.082585 0.44257 -2.871232
2007-02-22 12:18:28 51°37.551 2°36.36 17.9291 0.082482 0.44205 -2.871232
2007-02-22 12:19:27 51°37.568 2°35.996 17.9383 0.082688 0.443201 -2.871232
2007-02-22 12:20:28 51°37.587 2°35.621 17.9382 0.082688 0.443218 -2.871232
2007-02-22 12:21:28 51°37.605 2°35.251 17.9302 0.082791 0.443849 -2.871232
2007-02-22 12:22:29 51°37.629 2°34.875 17.9396 0.082791 0.443883 -2.871232
2007-02-22 12:23:28 51°37.654 2°34.507 17.9406 0.082482 0.442177 -2.871232
2007-02-22 12:24:28 51°37.665 2°34.126 17.9465 0.082688 0.443379 -2.871232
2007-02-22 12:25:28 51°37.542 2°33.824 17.9355 0.082688 0.443413 -2.871232
2007-02-22 12:26:28 51°37.321 2°33.74 17.9359 0.082585 0.44285 -2.871232
2007-02-22 12:27:29 51°37.09 2°33.675 17.9388 0.082585 0.442884 -2.871232
2007-02-22 12:28:29 51°36.867 2°33.564 17.9381 0.082688 0.443516 -2.871232
2007-02-22 12:29:29 51°36.644 2°33.453 17.9514 0.082688 0.443558 -2.871232
2007-02-22 12:30:28 51°36.426 2°33.342 17.9433 0.082585 0.44302 -2.871232
2007-02-22 12:31:28 51°36.205 2°33.227 17.9475 0.082688 0.443618 -2.871232
2007-02-22 12:32:28 51°35.983 2°33.114 17.9601 0.082791 0.444215 -2.871232
2007-02-22 12:33:29 51°35.758 2°33.001 17.9512 0.082688 0.443669 -2.871232
2007-02-22 12:34:28 51°35.54 2°32.891 17.9559 0.082688 0.443686 -2.871232
2007-02-22 12:35:28 51°35.318 2°32.78 17.9644 0.082894 0.444856 -2.871232
2007-02-22 12:36:29 51°35.093 2°32.667 17.9608 0.082791 0.444301 -2.871232
2007-02-22 12:37:29 51°34.872 2°32.553 17.9694 0.082585 0.443182 -2.871232
2007-02-22 12:38:28 51°34.657 2°32.44 17.9666 0.082585 0.443208 -2.871232
2007-02-22 12:39:28 51°34.436 2°32.331 17.9557 0.082688 0.443797 -2.871232
2007-02-22 12:40:29 51°34.211 2°32.224 17.9727 0.082791 0.444386 -2.871232
2007-02-22 12:41:28 51°33.994 2°32.116 17.9713 0.082688 0.443857 -2.871232
2007-02-22 12:42:28 51°33.772 2°32.01 17.9745 0.082688 0.443882 -2.871232
2007-02-22 12:43:29 51°33.546 2°31.908 17.9748 0.082688 0.443908 -2.871232
2007-02-22 12:44:29 51°33.324 2°31.81 17.9797 0.082482 0.442806 -2.871232
2007-02-22 12:45:29 51°33.102 2°31.713 17.9722 0.082688 0.443985 -2.871232
2007-02-22 12:46:28 51°32.885 2°31.617 17.9813 0.082688 0.444019 -2.871232
2007-02-22 12:47:29 51°32.658 2°31.521 17.9848 0.082996 0.44577 -2.871232
2007-02-22 12:48:28 51°32.437 2°31.427 17.9814 0.082688 0.444087 -2.871232
2007-02-22 12:49:29 51°32.208 2°31.33 17.9935 0.082585 0.44354 -2.871232
2007-02-22 12:50:28 51°31.985 2°31.337 17.9905 0.082791 0.444711 -2.871232
2007-02-22 12:51:29 51°31.773 2°31.471 17.9858 0.082688 0.444155 -2.871232
2007-02-22 12:52:29 51°31.591 2°31.671 17.9769 0.082791 0.444745 -2.871232
2007-02-22 12:53:29 51°31.4 2°31.852 17.9902 0.082791 0.444779 -2.871232
2007-02-22 12:54:29 51°31.205 2°32.025 17.9856 0.082791 0.444813 -2.871232
2007-02-22 12:55:28 51°31.014 2°32.195 17.9964 0.082791 0.444848 -2.871232
2007-02-22 12:56:29 51°30.817 2°32.366 17.9978 0.082791 0.444882 -2.871232
2007-02-22 12:57:28 51°30.627 2°32.533 17.9976 0.082791 0.444899 -2.871232
2007-02-22 12:58:29 51°30.428 2°32.705 17.9887 0.082791 0.444933 -2.871232
2007-02-22 12:59:28 51°30.236 2°32.87 17.99 0.082791 0.444976 -2.871232
2007-02-22 13:00:28 51°30.044 2°33.041 18.0037 0.082688 0.444429 -2.871232
2007-02-22 13:01:29 51°29.846 2°33.209 18.0134 0.082585 0.443882 -2.871232
2007-02-22 13:02:28 51°29.715 2°33.461 18.011 0.082791 0.445045 -2.871232
2007-02-22 13:03:28 51°29.717 2°33.784 17.9977 0.082688 0.444489 -2.871232
2007-02-22 13:04:28 51°29.741 2°34.098 18.0111 0.082791 0.445088 -2.871232
2007-02-22 13:05:28 51°29.742 2°34.298 18.006 0.082688 0.44454 -2.871232
2007-02-22 13:06:28 51°29.741 2°34.426 18.003 0.082688 0.444574 -2.871232
2007-02-22 13:07:28 51°29.739 2°34.514 18.0056 0.082791 0.445182 -2.871232
2007-02-22 13:08:29 51°29.733 2°34.576 17.9938 0.082688 0.444634 -2.871232
2007-02-22 13:09:28 51°29.725 2°34.62 17.9937 0.082688 0.44466 -2.871232
2007-02-22 13:10:28 51°29.717 2°34.65 18.003 0.082688 0.444686 -2.871232
2007-02-22 13:11:28 51°29.708 2°34.668 17.9995 0.082688 0.444711 -2.871232
2007-02-22 13:12:29 51°29.703 2°34.845 17.9865 0.082585 0.444172 -2.871232
2007-02-22 13:13:28 51°29.732 2°35.134 17.9894 0.082585 0.444215 -2.871232
2007-02-22 13:14:28 51°29.75 2°35.444 18.0045 0.082688 0.444788 -2.871232
2007-02-22 13:15:28 51°29.758 2°35.759 17.9976 0.082482 0.443693 -2.871232
2007-02-22 13:16:28 51°29.76 2°36.075 18.0023 0.082688 0.444857 -2.871232
2007-02-22 13:17:29 51°29.757 2°36.396 18.0179 0.082585 0.444309 -2.871232
2007-02-22 13:18:28 51°29.754 2°36.709 18.019 0.082482 0.443778 -2.871232
2007-02-22 13:19:29 51°29.749 2°37.034 18.0162 0.082585 0.444386 -2.871232
2007-02-22 13:20:28 51°29.743 2°37.346 18.016 0.082688 0.444994 -2.871232
2007-02-22 13:21:28 51°29.736 2°37.662 18.0163 0.082585 0.444463 -2.871232
2007-02-22 13:22:28 51°29.721 2°37.972 18.0264 0.082585 0.444489 -2.871232
2007-02-22 13:23:28 51°29.594 2°38.207 18.0335 0.082482 0.443941 -2.871232
2007-02-22 13:24:28 51°29.395 2°38.286 18.0482 0.082585 0.444541 -2.871232
2007-02-22 13:25:27 51°29.19 2°38.322 18.0395 0.082688 0.445149 -2.871232
2007-02-22 13:26:29 51°28.98 2°38.412 18.047 0.082482 0.444027 -2.871232
2007-02-22 13:27:28 51°28.779 2°38.492 18.0392 0.082585 0.444626 -2.871232
2007-02-22 13:28:29 51°28.573 2°38.576 18.0419 0.082688 0.445226 -2.871232
2007-02-22 13:29:28 51°28.374 2°38.658 18.0562 0.082688 0.445243 -2.871232
2007-02-22 13:30:28 51°28.173 2°38.741 18.0594 0.082585 0.444695 -2.871232
2007-02-22 13:31:29 51°27.968 2°38.825 18.0658 0.082688 0.445286 -2.871232
2007-02-22 13:32:28 51°27.769 2°38.907 18.0603 0.082688 0.445312 -2.871232
2007-02-22 13:33:29 51°27.564 2°38.994 18.0727 0.082585 0.444755 -2.871232
2007-02-22 13:34:28 51°27.366 2°39.077 18.0694 0.082585 0.444781 -2.871232
2007-02-22 13:35:29 51°27.161 2°39.163 18.075 0.082688 0.445363 -2.871232
2007-02-22 13:36:28 51°26.963 2°39.246 18.0772 0.082688 0.445381 -2.871232
2007-02-22 13:37:28 51°26.763 2°39.333 18.0738 0.082585 0.444815 -2.871232
2007-02-22 13:38:28 51°26.562 2°39.418 18.086 0.082585 0.444832 -2.871232
2007-02-22 13:39:28 51°26.363 2°39.506 18.0969 0.082585 0.444849 -2.871232
2007-02-22 13:40:28 51°26.163 2°39.594 18.1027 0.082791 0.446015 -2.871232
2007-02-22 13:41:28 51°25.964 2°39.683 18.1036 0.082585 0.444884 -2.871232
2007-02-22 13:42:28 51°25.765 2°39.773 18.1103 0.082688 0.445467 -2.871232
2007-02-22 13:43:28 51°25.566 2°39.86 18.1139 0.082585 0.444901 -2.871232
2007-02-22 13:44:28 51°25.366 2°39.947 18.1115 0.082688 0.445492 -2.871232
2007-02-22 13:45:28 51°25.168 2°40.036 18.1213 0.082688 0.445501 -2.871232
2007-02-22 13:46:29 51°24.967 2°40.13 18.1275 0.082791 0.446093 -2.871232
2007-02-22 13:47:29 51°24.771 2°40.222 18.1179 0.082688 0.445518 -2.871232
2007-02-22 13:48:28 51°24.581 2°40.32 18.131 0.082688 0.445535 -2.871232
2007-02-22 13:49:28 51°24.388 2°40.418 18.1303 0.082894 0.446693 -2.871232
2007-02-22 13:50:29 51°24.19 2°40.51 18.1371 0.082688 0.445544 -2.871232
2007-02-22 13:51:28 51°23.993 2°40.534 18.1347 0.082482 0.444404 -2.871232
2007-02-22 13:52:28 51°23.793 2°40.558 18.1406 0.082688 0.445578 -2.871232
2007-02-22 13:53:29 51°23.59 2°40.582 18.1572 0.082585 0.444995 -2.871232
2007-02-22 13:54:28 51°23.394 2°40.598 18.1387 0.082482 0.44443 -2.871232
2007-02-22 13:55:29 51°23.193 2°40.616 18.1738 0.082688 0.445587 -2.871232
2007-02-22 13:56:29 51°22.994 2°40.634 18.1643 0.082688 0.445596 -2.871232
2007-02-22 13:57:29 51°22.796 2°40.653 18.1731 0.082688 0.445596 -2.871232
2007-02-22 13:58:29 51°22.598 2°40.682 18.1432 0.082585 0.44503 -2.871232
2007-02-22 13:59:29 51°22.495 2°40.498 18.2012 0.082688 0.445647 -2.871232
2007-02-22 14:00:29 51°22.442 2°40.219 18.2148 0.082585 0.445081 -2.871232
2007-02-22 14:01:29 51°22.323 2°40.002 18.217 0.082585 0.445073 -2.871232
2007-02-22 14:02:29 51°22.146 2°40.02 18.1665 0.082688 0.445639 -2.871232
2007-02-22 14:03:28 51°21.966 2°40.149 18.2076 0.082688 0.445613 -2.871232
2007-02-22 14:04:29 51°21.773 2°40.26 18.197 0.082482 0.444498 -2.871232
2007-02-22 14:05:29 51°21.582 2°40.358 18.2108 0.082585 0.445064 -2.871232
2007-02-22 14:06:29 51°21.39 2°40.441 18.2113 0.082482 0.444498 -2.871232
2007-02-22 14:07:29 51°21.199 2°40.529 18.2192 0.082791 0.446222 -2.871232
2007-02-22 14:08:28 51°21.01 2°40.611 18.2054 0.082585 0.445081 -2.871232
2007-02-22 14:09:29 51°20.819 2°40.71 18.2185 0.082585 0.445081 -2.871232
2007-02-22 14:10:28 51°20.647 2°40.866 18.2279 0.082688 0.445656 -2.871232
2007-02-22 14:11:29 51°20.523 2°41.128 18.2173 0.082585 0.445107 -2.871232
2007-02-22 14:12:29 51°20.473 2°41.466 18.2426 0.082688 0.445656 -2.871232
2007-02-22 14:13:29 51°20.41 2°41.805 18.2594 0.082688 0.445647 -2.871232
2007-02-22 14:14:29 51°20.333 2°42.139 18.2583 0.082791 0.446231 -2.871232
2007-02-22 14:15:28 51°20.255 2°42.467 18.2328 0.082688 0.445656 -2.871232
2007-02-22 14:16:29 51°20.17 2°42.798 18.2701 0.082791 0.446213 -2.871232
2007-02-22 14:17:28 51°20.091 2°43.109 18.2692 0.082482 0.44449 -2.871232
2007-02-22 14:18:29 51°20.012 2°43.425 18.2714 0.082688 0.44563 -2.871232
2007-02-22 14:19:28 51°19.935 2°43.729 18.2737 0.082688 0.44563 -2.871232
2007-02-22 14:20:28 51°19.857 2°44.04 18.2791 0.082482 0.444481 -2.871232
2007-02-22 14:21:28 51°19.778 2°44.353 18.2752 0.082585 0.445064 -2.871232
2007-02-22 14:22:29 51°19.698 2°44.67 18.2741 0.082688 0.445639 -2.871232
2007-02-22 14:23:29 51°19.618 2°44.985 18.3082 0.082482 0.444481 -2.871232
2007-02-22 14:24:29 51°19.538 2°45.303 18.317 0.082688 0.445622 -2.871232
2007-02-22 14:25:29 51°19.45 2°45.629 18.3157 0.082482 0.444464 -2.871232
2007-02-22 14:26:28 51°19.367 2°45.951 18.3218 0.082482 0.444464 -2.871232
2007-02-22 14:27:29 51°19.282 2°46.28 18.3266 0.082585 0.44503 -2.871232
2007-02-22 14:28:28 51°19.201 2°46.589 18.3266 0.082688 0.445604 -2.871232
2007-02-22 14:29:29 51°19.12 2°46.906 18.3078 0.082585 0.445021 -2.871232
2007-02-22 14:30:29 51°19.037 2°47.217 18.3233 0.082585 0.445013 -2.871232
2007-02-22 14:31:28 51°18.95 2°47.52 18.3493 0.082585 0.445004 -2.871232
2007-02-22 14:32:29 51°18.854 2°47.828 18.3244 0.082585 0.445004 -2.871232
2007-02-22 14:33:29 51°18.76 2°48.132 18.3677 0.082585 0.444978 -2.871232
2007-02-22 14:34:29 51°18.662 2°48.438 18.3629 0.082585 0.444978 -2.871232
2007-02-22 14:35:28 51°18.567 2°48.745 18.3882 0.082585 0.44497 -2.871232
2007-02-22 14:36:29 51°18.468 2°49.061 18.3934 0.082482 0.444387 -2.871232
2007-02-22 14:37:29 51°18.37 2°49.373 18.3713 0.082482 0.444387 -2.871232
2007-02-22 14:38:29 51°18.275 2°49.682 18.3776 0.082482 0.44437 -2.871232
2007-02-22 14:39:29 51°18.181 2°49.99 18.4093 0.082688 0.44551 -2.871232
2007-02-22 14:40:29 51°18.09 2°50.299 18.3976 0.082585 0.444927 -2.871232
2007-02-22 14:41:29 51°17.999 2°50.605 18.4087 0.082585 0.444918 -2.871232
2007-02-22 14:42:28 51°17.913 2°50.907 18.4206 0.082585 0.444901 -2.871232
2007-02-22 14:43:29 51°17.816 2°51.214 18.3866 0.082585 0.444901 -2.871232
2007-02-22 14:44:28 51°17.717 2°51.505 18.4225 0.082585 0.444875 -2.871232
2007-02-22 14:45:29 51°17.613 2°51.804 18.4224 0.082585 0.444867 -2.871232
2007-02-22 14:46:29 51°17.479 2°52.048 18.4268 0.082688 0.445458 -2.871232
2007-02-22 14:47:29 51°17.319 2°52.23 18.4273 0.082585 0.444867 -2.871232
2007-02-22 14:48:29 51°17.151 2°52.388 18.438 0.082482 0.444284 -2.871232
2007-02-22 14:49:28 51°16.985 2°52.545 18.4567 0.082585 0.444841 -2.871232
2007-02-22 14:50:29 51°16.815 2°52.708 18.4626 0.082585 0.444841 -2.871232
2007-02-22 14:51:29 51°16.647 2°52.873 18.4718 0.082482 0.444249 -2.871232
2007-02-22 14:52:29 51°16.481 2°53.048 18.4718 0.082585 0.444824 -2.871232
2007-02-22 14:53:29 51°16.315 2°53.225 18.4902 0.082585 0.444806 -2.871232
2007-02-22 14:54:28 51°16.153 2°53.397 18.4884 0.082379 0.443641 -2.871232
2007-02-22 14:55:29 51°15.978 2°53.543 18.4963 0.082585 0.444789 -2.871232
2007-02-22 14:56:29 51°15.805 2°53.667 18.481 0.082482 0.444207 -2.871232
2007-02-22 14:57:29 51°15.63 2°53.79 18.4836 0.082585 0.444781 -2.871232
2007-02-22 14:58:29 51°15.455 2°53.91 18.536 0.082482 0.444198 -2.871232
2007-02-22 14:59:29 51°15.279 2°54.028 18.5024 0.082482 0.444189 -2.871232
2007-02-22 15:00:29 51°15.103 2°54.148 18.5325 0.082688 0.445329 -2.871232
2007-02-22 15:01:29 51°14.926 2°54.3 18.528 0.082482 0.444172 -2.871232
2007-02-22 15:02:29 51°14.756 2°54.501 18.536 0.082482 0.444164 -2.871232
2007-02-22 15:03:28 51°14.591 2°54.723 18.4922 0.082482 0.444155 -2.871232
2007-02-22 15:04:28 51°14.427 2°54.96 18.58 0.082482 0.444147 -2.871232
2007-02-22 15:05:28 51°14.28 2°55.228 18.5057 0.082379 0.443564 -2.871232
2007-02-22 15:06:29 51°14.127 2°55.424 18.5689 0.082482 0.444129 -2.871232
2007-02-22 15:07:29 51°13.988 2°55.522 18.5822 0.082482 0.444112 -2.871232
2007-02-22 15:08:29 51°13.872 2°55.607 18.5866 0.082482 0.444104 -2.871232
2007-02-22 15:09:28 51°13.767 2°55.695 18.6092 0.082379 0.443521 -2.871232
2007-02-22 15:10:28 51°13.689 2°55.812 18.6068 0.082482 0.444095 -2.871232
2007-02-22 15:11:29 51°13.645 2°55.928 18.6034 0.082379 0.443504 -2.871232
2007-02-22 15:12:29 51°13.612 2°56.021 18.6276 0.082482 0.444069 -2.871232
2007-02-22 15:13:29 51°13.605 2°56.076 18.6425 0.082482 0.444069 -2.871232
2007-02-22 15:14:28 51°13.604 2°56.083 18.6613 0.082379 0.44347 -2.871232
2007-02-22 15:15:29 51°13.601 2°56.089 18.6601 0.082585 0.444618 -2.871232